Time;durP1;ratioP1;P1;durP2;ratioP2;P2;SDS_P1;SDS_P2;PMS_P1;PMS_P2;Temp;Humidity;BMP_temperature;BMP_pressure;BME280_temperature;BME280_humidity;BME280_pressure;Samples;Min_cycle;Max_cycle;Signal;HPM_P1;HPM_P2
2023/05/13 00:00:24;;;;;;;;;;;13.10;99.90;;;;;;5047604;28;20059;-93
2023/05/13 00:02:56;;;;;;;;;;;13.10;99.90;;;;;;5039243;28;19960;-93
2023/05/13 00:05:22;;;;;;;;;;;13.10;99.90;;;;;;5038274;28;19924;-92
2023/05/13 00:07:48;;;;;;;;;;;13.00;99.90;;;;;;5045785;28;19936;-92
2023/05/13 00:10:15;;;;;;;;;;;13.00;99.90;;;;;;5047555;28;19924;-93
2023/05/13 00:12:41;;;;;;;;;;;13.00;99.90;;;;;;5033489;28;19962;-91
2023/05/13 00:15:06;;;;;;;;;;;13.00;99.90;;;;;;5047175;28;19947;-92
2023/05/13 00:17:32;;;;;;;;;;;13.00;99.90;;;;;;5048544;28;19985;-93
2023/05/13 00:19:58;;;;;;;;;;;12.90;99.90;;;;;;5031090;28;19925;-93
2023/05/13 00:22:24;;;;;;;;;;;;;;;;;;5048655;28;19924;-92
2023/05/13 00:24:52;;;;;;;;;;;12.90;99.90;;;;;;5075898;28;19925;-92
2023/05/13 00:27:18;;;;;;;;;;;12.90;99.90;;;;;;5069667;28;19925;-93
2023/05/13 00:29:44;;;;;;;;;;;12.90;99.90;;;;;;5049322;28;20134;-92
2023/05/13 00:32:09;;;;;;;;;;;12.90;99.90;;;;;;5046339;28;19975;-93
2023/05/13 00:34:35;;;;;;;;;;;12.90;99.90;;;;;;5047250;28;19963;-94
2023/05/13 00:37:04;;;;;;;;;;;12.90;99.90;;;;;;5046495;28;19925;-93
2023/05/13 00:39:29;;;;;;;;;;;12.80;99.90;;;;;;5035745;28;19982;-93
2023/05/13 00:41:55;;;;;;;;;;;12.90;99.90;;;;;;5030281;28;19946;-93
2023/05/13 00:44:20;;;;;;;;;;;12.90;99.90;;;;;;5045806;28;20280;-92
2023/05/13 00:46:46;;;;;;;;;;;12.80;99.90;;;;;;5031612;28;20003;-92
2023/05/13 00:49:12;;;;;;;;;;;12.80;99.90;;;;;;5026886;28;20328;-92
2023/05/13 00:51:45;;;;;;;;;;;12.80;99.90;;;;;;5045819;28;19951;-91
2023/05/13 00:54:10;;;;;;;;;;;12.70;99.90;;;;;;5046084;28;19956;-93
2023/05/13 00:56:37;;;;;;;;;;;12.60;99.90;;;;;;5019745;28;19951;-92
2023/05/13 00:59:03;;;;;;;;;;;12.60;99.90;;;;;;5063396;28;19931;-92
2023/05/13 01:01:35;;;;;;;;;;;12.70;99.90;;;;;;5030177;28;19924;-92
2023/05/13 01:04:19;;;;;;;;;;;12.60;99.90;;;;;;5059830;28;19931;-93
2023/05/13 01:07:04;;;;;;;;;;;12.60;99.90;;;;;;5036702;28;19929;-92
2023/05/13 01:09:35;;;;;;;;;;;12.50;99.90;;;;;;5051929;28;19925;-93
2023/05/13 01:12:07;;;;;;;;;;;12.50;99.90;;;;;;5041209;28;19925;-92
2023/05/13 01:14:39;;;;;;;;;;;12.50;99.90;;;;;;5046397;28;19978;-93
2023/05/13 01:17:10;;;;;;;;;;;12.50;99.90;;;;;;5050015;28;19920;-92
2023/05/13 01:19:43;;;;;;;;;;;12.40;99.90;;;;;;5047831;28;19929;-92
2023/05/13 01:22:15;;;;;;;;;;;12.40;99.90;;;;;;5051962;28;19979;-92
2023/05/13 01:24:41;;;;;;;;;;;12.40;99.90;;;;;;5038724;28;19971;-93
2023/05/13 01:27:07;;;;;;;;;;;12.40;99.90;;;;;;5027442;28;19928;-93
2023/05/13 01:29:32;;;;;;;;;;;12.40;99.90;;;;;;5029750;28;19925;-92
2023/05/13 01:31:59;;;;;;;;;;;12.40;99.90;;;;;;5025766;28;19932;-92
2023/05/13 01:34:26;;;;;;;;;;;14.30;99.90;;;;;;5044101;28;19929;-92
2023/05/13 01:36:51;;;;;;;;;;;12.30;99.90;;;;;;5045396;28;19924;-92
2023/05/13 01:39:18;;;;;;;;;;;12.30;99.90;;;;;;5057604;28;19931;-94
2023/05/13 01:41:43;;;;;;;;;;;12.30;99.90;;;;;;5027947;28;19925;-93
2023/05/13 01:44:09;;;;;;;;;;;12.20;99.90;;;;;;5028879;28;19931;-92
2023/05/13 01:46:37;;;;;;;;;;;12.20;99.90;;;;;;5039306;28;19936;-91
2023/05/13 01:49:03;;;;;;;;;;;12.20;99.90;;;;;;5060971;28;19924;-92
2023/05/13 01:51:30;;;;;;;;;;;12.10;99.90;;;;;;5047118;28;19924;-93
2023/05/13 01:53:56;;;;;;;;;;;12.00;99.90;;;;;;5044334;28;20403;-93
2023/05/13 01:56:22;;;;;;;;;;;12.10;99.90;;;;;;5046463;28;19924;-94
2023/05/13 01:58:48;;;;;;;;;;;12.00;99.90;;;;;;5028921;28;19932;-93
2023/05/13 02:01:13;;;;;;;;;;;12.00;99.90;;;;;;5028911;28;20332;-94
2023/05/13 02:03:39;;;;;;;;;;;12.00;99.90;;;;;;5028786;28;19925;-93
2023/05/13 02:06:05;;;;;;;;;;;11.90;99.90;;;;;;5027656;28;19924;-95
2023/05/13 02:08:30;;;;;;;;;;;13.30;99.90;;;;;;5044839;28;20380;-93
2023/05/13 02:10:56;;;;;;;;;;;11.90;99.90;;;;;;5028148;28;19928;-92
2023/05/13 02:13:22;;;;;;;;;;;11.90;99.90;;;;;;5046339;28;19924;-92
2023/05/13 02:15:48;;;;;;;;;;;11.90;99.90;;;;;;5034229;28;19924;-92
2023/05/13 02:18:13;;;;;;;;;;;11.90;99.90;;;;;;5044885;28;19996;-92
2023/05/13 02:20:39;;;;;;;;;;;11.90;99.90;;;;;;5045229;28;19975;-93
2023/05/13 02:23:05;;;;;;;;;;;11.80;99.90;;;;;;5049912;28;19925;-93
2023/05/13 02:25:31;;;;;;;;;;;11.80;99.90;;;;;;5053935;28;19924;-92
2023/05/13 02:27:57;;;;;;;;;;;11.80;99.90;;;;;;5027781;28;19928;-92
2023/05/13 02:30:25;;;;;;;;;;;11.90;99.90;;;;;;5030118;28;19924;-92
2023/05/13 02:32:52;;;;;;;;;;;11.80;99.90;;;;;;5048893;28;20110;-93
2023/05/13 02:35:17;;;;;;;;;;;11.80;99.90;;;;;;5041411;28;19925;-93
2023/05/13 02:37:43;;;;;;;;;;;11.90;99.90;;;;;;5021472;28;19931;-92
2023/05/13 02:40:09;;;;;;;;;;;11.90;99.90;;;;;;5050116;28;19921;-92
2023/05/13 02:42:35;;;;;;;;;;;11.80;99.90;;;;;;5042094;28;19947;-90
2023/05/13 02:45:01;;;;;;;;;;;11.90;99.90;;;;;;5047300;28;19924;-93
2023/05/13 02:47:26;;;;;;;;;;;11.80;99.90;;;;;;5030263;28;19940;-93
2023/05/13 02:49:53;;;;;;;;;;;11.80;99.90;;;;;;5034675;28;19925;-92
2023/05/13 02:52:18;;;;;;;;;;;11.80;99.90;;;;;;5029329;28;19979;-92
2023/05/13 02:54:44;;;;;;;;;;;11.80;99.90;;;;;;5046618;28;19932;-92
2023/05/13 02:57:10;;;;;;;;;;;11.80;99.90;;;;;;5030682;28;20042;-93
2023/05/13 02:59:39;;;;;;;;;;;11.90;99.90;;;;;;5048291;28;19924;-91
2023/05/13 03:02:04;;;;;;;;;;;11.90;99.90;;;;;;5030398;28;19931;-92
2023/05/13 03:04:30;;;;;;;;;;;11.80;99.90;;;;;;5031297;28;20341;-91
2023/05/13 03:06:56;;;;;;;;;;;11.80;99.90;;;;;;5030453;28;19974;-92
2023/05/13 03:09:21;;;;;;;;;;;11.80;99.90;;;;;;5045169;28;19931;-93
2023/05/13 03:11:47;;;;;;;;;;;11.90;99.90;;;;;;5016150;28;19931;-91
2023/05/13 03:14:16;;;;;;;;;;;11.90;99.90;;;;;;5056214;28;19924;-92
2023/05/13 03:16:41;;;;;;;;;;;11.90;99.90;;;;;;5028738;28;20246;-93
2023/05/13 03:19:07;;;;;;;;;;;11.90;99.90;;;;;;5031499;28;20345;-93
2023/05/13 03:21:32;;;;;;;;;;;11.90;99.90;;;;;;5047255;28;19935;-93
2023/05/13 03:23:58;;;;;;;;;;;11.80;99.90;;;;;;5031991;28;19936;-91
2023/05/13 03:26:24;;;;;;;;;;;11.80;99.90;;;;;;5033062;28;19974;-93
2023/05/13 03:28:56;;;;;;;;;;;11.80;99.90;;;;;;5052789;28;19975;-93
2023/05/13 03:31:21;;;;;;;;;;;11.80;99.90;;;;;;5043750;28;19924;-93
2023/05/13 03:33:47;;;;;;;;;;;11.80;99.90;;;;;;5046045;28;19932;-92
2023/05/13 03:36:13;;;;;;;;;;;11.70;99.90;;;;;;5071689;28;19925;-94
2023/05/13 03:38:39;;;;;;;;;;;11.60;99.90;;;;;;5048994;28;20347;-93
2023/05/13 03:41:05;;;;;;;;;;;11.60;99.90;;;;;;5045230;28;20459;-93
2023/05/13 03:43:31;;;;;;;;;;;11.60;99.90;;;;;;5034466;28;19951;-92
2023/05/13 03:45:57;;;;;;;;;;;11.70;99.90;;;;;;5064657;28;19929;-92
2023/05/13 03:48:22;;;;;;;;;;;11.60;99.90;;;;;;5048094;28;19924;-93
2023/05/13 03:50:48;;;;;;;;;;;11.70;99.90;;;;;;5047735;28;20344;-93
2023/05/13 03:53:14;;;;;;;;;;;11.60;99.90;;;;;;5064008;28;19955;-93
2023/05/13 03:55:40;;;;;;;;;;;11.50;99.90;;;;;;5056089;28;20248;-92
2023/05/13 03:58:10;;;;;;;;;;;11.60;99.90;;;;;;5050172;28;19935;-93
2023/05/13 04:00:35;;;;;;;;;;;11.60;99.90;;;;;;5052126;28;19950;-92
2023/05/13 04:03:01;;;;;;;;;;;12.60;99.90;;;;;;5052648;28;19966;-94
2023/05/13 04:05:27;;;;;;;;;;;11.40;99.90;;;;;;5073865;28;19920;-93
2023/05/13 04:07:52;;;;;;;;;;;11.40;99.90;;;;;;5056708;28;19920;-93
2023/05/13 04:10:18;;;;;;;;;;;11.50;99.90;;;;;;5056119;28;19924;-92
2023/05/13 04:12:50;;;;;;;;;;;11.50;99.90;;;;;;5083331;28;20443;-93
2023/05/13 04:15:16;;;;;;;;;;;11.40;99.90;;;;;;5063745;28;19930;-94
2023/05/13 04:17:41;;;;;;;;;;;11.40;99.90;;;;;;5058813;28;19967;-92
2023/05/13 04:20:07;;;;;;;;;;;11.40;99.90;;;;;;5063129;28;19924;-92
2023/05/13 04:22:33;;;;;;;;;;;11.40;99.90;;;;;;5056439;28;20351;-92
2023/05/13 04:24:59;;;;;;;;;;;11.30;99.90;;;;;;5058364;28;19947;-93
2023/05/13 04:27:24;;;;;;;;;;;11.40;99.90;;;;;;5054584;28;19924;-92
2023/05/13 04:29:50;;;;;;;;;;;11.40;99.90;;;;;;5045426;28;19935;-92
2023/05/13 04:32:20;;;;;;;;;;;11.40;99.90;;;;;;5032203;28;20450;-93
2023/05/13 04:34:50;;;;;;;;;;;11.40;99.90;;;;;;5043108;28;19925;-92
2023/05/13 04:37:16;;;;;;;;;;;11.50;99.90;;;;;;5046458;28;19932;-92
2023/05/13 04:39:42;;;;;;;;;;;11.60;99.90;;;;;;5033530;28;19989;-94
2023/05/13 04:42:08;;;;;;;;;;;11.60;99.90;;;;;;5048909;28;19942;-92
2023/05/13 04:44:33;;;;;;;;;;;11.70;99.90;;;;;;5029260;28;19925;-93
2023/05/13 04:46:59;;;;;;;;;;;11.60;99.90;;;;;;5031547;28;19932;-93
2023/05/13 04:49:25;;;;;;;;;;;11.70;99.90;;;;;;5028578;28;19925;-93
2023/05/13 04:51:50;;;;;;;;;;;11.80;99.90;;;;;;5048682;28;20027;-94
2023/05/13 04:54:16;;;;;;;;;;;11.90;99.90;;;;;;5035498;28;19933;-92
2023/05/13 04:56:42;;;;;;;;;;;11.80;99.90;;;;;;5030541;28;19924;-94
2023/05/13 04:59:08;;;;;;;;;;;11.80;99.90;;;;;;5033802;28;19925;-93
2023/05/13 05:01:34;;;;;;;;;;;11.80;99.90;;;;;;5042881;28;19932;-92
2023/05/13 05:03:59;;;;;;;;;;;11.80;99.90;;;;;;5030109;28;19925;-93
2023/05/13 05:06:25;;;;;;;;;;;11.80;99.90;;;;;;5045231;28;19990;-93
2023/05/13 05:08:51;;;;;;;;;;;11.90;99.90;;;;;;5047831;28;19924;-93
2023/05/13 05:11:16;;;;;;;;;;;11.90;99.90;;;;;;5029585;28;19986;-93
2023/05/13 05:13:42;;;;;;;;;;;12.00;99.90;;;;;;5030245;28;20015;-93
2023/05/13 05:16:08;;;;;;;;;;;12.00;99.90;;;;;;5041013;28;20015;-93
2023/05/13 05:18:35;;;;;;;;;;;12.10;99.90;;;;;;5029797;28;20541;-92
2023/05/13 05:21:01;;;;;;;;;;;12.10;99.90;;;;;;5067054;28;19947;-93
2023/05/13 05:23:27;;;;;;;;;;;12.20;99.90;;;;;;5070362;28;19920;-92
2023/05/13 05:25:52;;;;;;;;;;;12.20;99.90;;;;;;5052313;28;19939;-94
2023/05/13 05:28:18;;;;;;;;;;;12.40;99.90;;;;;;5035781;28;20200;-91
2023/05/13 05:30:44;;;;;;;;;;;12.40;99.90;;;;;;5053250;28;19924;-92
2023/05/13 05:33:10;;;;;;;;;;;12.40;99.90;;;;;;5062845;28;20243;-92
2023/05/13 05:35:37;;;;;;;;;;;12.40;99.90;;;;;;5058770;28;19929;-93
2023/05/13 05:38:03;;;;;;;;;;;12.40;99.90;;;;;;5063000;28;19924;-93
2023/05/13 05:40:30;;;;;;;;;;;12.50;99.90;;;;;;5045107;28;19954;-93
2023/05/13 05:43:01;;;;;;;;;;;12.60;99.90;;;;;;5064959;28;19928;-93
2023/05/13 05:45:27;;;;;;;;;;;12.60;99.90;;;;;;5055320;28;20443;-92
2023/05/13 05:47:54;;;;;;;;;;;12.70;99.90;;;;;;5045493;28;19925;-92
2023/05/13 05:50:26;;;;;;;;;;;12.80;99.90;;;;;;5062011;28;19925;-94
2023/05/13 05:52:52;;;;;;;;;;;12.80;99.90;;;;;;5042141;28;19957;-94
2023/05/13 05:55:21;;;;;;;;;;;12.80;99.90;;;;;;5063533;28;19924;-93
2023/05/13 05:57:46;;;;;;;;;;;12.90;99.90;;;;;;5045199;28;19939;-93
2023/05/13 06:00:12;;;;;;;;;;;13.00;99.90;;;;;;5063379;28;20411;-92
2023/05/13 06:02:38;;;;;;;;;;;13.00;99.90;;;;;;5061653;28;19924;-93
2023/05/13 06:05:04;;;;;;;;;;;13.10;99.90;;;;;;5046844;28;19924;-93
2023/05/13 06:07:29;;;;;;;;;;;13.20;99.90;;;;;;5046174;28;19925;-93
2023/05/13 06:09:55;;;;;;;;;;;13.20;99.90;;;;;;5045077;28;20013;-93
2023/05/13 06:12:21;;;;;;;;;;;13.30;99.90;;;;;;5058789;28;20015;-92
2023/05/13 06:14:47;;;;;;;;;;;13.40;99.90;;;;;;5058623;28;19928;-92
2023/05/13 06:17:13;;;;;;;;;;;13.40;99.90;;;;;;5040116;28;19932;-92
2023/05/13 06:19:41;;;;;;;;;;;13.40;99.90;;;;;;5043513;28;19924;-92
2023/05/13 06:22:10;;;;;;;;;;;13.50;99.90;;;;;;5063270;28;19971;-93
2023/05/13 06:24:36;;;;;;;;;;;13.50;99.90;;;;;;5061626;28;19974;-93
2023/05/13 06:27:01;;;;;;;;;;;13.60;99.90;;;;;;5045434;28;19924;-95
2023/05/13 06:29:28;;;;;;;;;;;13.70;99.90;;;;;;5044844;28;19946;-93
2023/05/13 06:31:56;;;;;;;;;;;13.80;99.90;;;;;;5060391;28;22081;-92
2023/05/13 06:34:22;;;;;;;;;;;13.90;99.90;;;;;;5060234;28;19924;-92
2023/05/13 06:36:48;;;;;;;;;;;13.90;99.90;;;;;;5034285;28;19967;-93
2023/05/13 06:39:13;;;;;;;;;;;14.00;99.90;;;;;;5046226;28;19931;-95
2023/05/13 06:41:39;;;;;;;;;;;14.00;99.90;;;;;;5054895;28;19925;-93
2023/05/13 06:44:05;;;;;;;;;;;14.00;99.90;;;;;;5060508;28;19933;-92
2023/05/13 06:46:34;;;;;;;;;;;14.10;99.90;;;;;;5091679;28;19932;-92
2023/05/13 06:49:00;;;;;;;;;;;14.10;99.90;;;;;;5068670;28;19939;-93
2023/05/13 06:51:27;;;;;;;;;;;14.20;99.90;;;;;;5071610;28;19928;-91
2023/05/13 06:53:53;;;;;;;;;;;14.20;99.90;;;;;;5057075;28;19924;-90
2023/05/13 06:56:19;;;;;;;;;;;14.20;99.90;;;;;;5031549;28;20318;-92
2023/05/13 06:58:44;;;;;;;;;;;14.20;99.90;;;;;;5057246;28;20003;-94
2023/05/13 07:01:10;;;;;;;;;;;14.30;99.90;;;;;;5045323;28;19924;-93
2023/05/13 07:03:36;;;;;;;;;;;14.40;99.90;;;;;;5044596;28;19924;-92
2023/05/13 07:06:03;;;;;;;;;;;14.40;99.90;;;;;;5050142;28;19925;-93
2023/05/13 07:08:28;;;;;;;;;;;14.40;99.90;;;;;;5062125;28;19924;-93
2023/05/13 07:10:54;;;;;;;;;;;14.50;99.90;;;;;;5044251;28;19971;-92
2023/05/13 07:13:21;;;;;;;;;;;14.50;99.90;;;;;;5045767;28;19935;-93
2023/05/13 07:15:47;;;;;;;;;;;14.60;99.90;;;;;;5061248;28;20276;-94
2023/05/13 07:18:13;;;;;;;;;;;14.70;99.90;;;;;;5060192;28;19983;-92
2023/05/13 07:20:38;;;;;;;;;;;14.70;99.90;;;;;;5044834;28;19947;-92
2023/05/13 07:23:04;;;;;;;;;;;14.80;99.90;;;;;;5060533;28;20400;-93
2023/05/13 07:25:29;;;;;;;;;;;14.90;99.90;;;;;;5048980;28;19972;-92
2023/05/13 07:27:55;;;;;;;;;;;15.00;99.90;;;;;;5044160;28;20038;-92
2023/05/13 07:30:21;;;;;;;;;;;15.00;99.90;;;;;;5054519;28;19925;-91
2023/05/13 07:32:47;;;;;;;;;;;15.00;99.90;;;;;;5052036;28;20280;-91
2023/05/13 07:35:13;;;;;;;;;;;15.60;99.90;;;;;;5054325;28;20416;-92
2023/05/13 07:37:38;;;;;;;;;;;15.10;99.90;;;;;;5039258;28;19956;-94
2023/05/13 07:40:05;;;;;;;;;;;15.10;99.90;;;;;;5054002;28;19947;-94
2023/05/13 07:42:31;;;;;;;;;;;15.10;99.90;;;;;;5055082;28;19932;-92
2023/05/13 07:44:57;;;;;;;;;;;15.30;99.90;;;;;;5060188;28;19928;-94
2023/05/13 07:47:23;;;;;;;;;;;15.30;99.90;;;;;;5045855;28;19924;-93
2023/05/13 07:49:49;;;;;;;;;;;15.30;99.90;;;;;;5038288;28;19988;-92
2023/05/13 07:52:15;;;;;;;;;;;15.30;99.90;;;;;;5046110;28;19925;-94
2023/05/13 07:54:41;;;;;;;;;;;15.40;99.90;;;;;;5056996;28;19954;-93
2023/05/13 07:57:07;;;;;;;;;;;15.50;99.90;;;;;;5043981;28;19928;-93
2023/05/13 07:59:32;;;;;;;;;;;15.50;99.90;;;;;;5060726;28;19931;-94
2023/05/13 08:01:58;;;;;;;;;;;15.60;99.90;;;;;;5044283;28;19936;-92
2023/05/13 08:04:24;;;;;;;;;;;15.60;99.90;;;;;;5047970;28;19925;-92
2023/05/13 08:06:49;;;;;;;;;;;15.30;99.90;;;;;;5048408;28;20375;-93
2023/05/13 08:09:15;;;;;;;;;;;15.70;99.90;;;;;;5078026;28;19993;-93
2023/05/13 08:11:41;;;;;;;;;;;15.80;99.90;;;;;;5056868;28;19929;-93
2023/05/13 08:14:06;;;;;;;;;;;15.80;99.90;;;;;;5054323;28;19928;-92
2023/05/13 08:16:35;;;;;;;;;;;15.90;99.90;;;;;;5054792;28;19932;-93
2023/05/13 08:19:04;;;;;;;;;;;15.90;99.90;;;;;;5084755;28;19924;-94
2023/05/13 08:21:30;;;;;;;;;;;16.10;99.90;;;;;;5049685;28;19946;-93
2023/05/13 08:23:56;;;;;;;;;;;16.20;99.90;;;;;;5046655;28;19929;-93
2023/05/13 08:26:22;;;;;;;;;;;16.20;99.90;;;;;;5082285;28;19928;-93
2023/05/13 08:28:48;;;;;;;;;;;16.30;99.90;;;;;;5061483;28;19970;-92
2023/05/13 08:31:13;;;;;;;;;;;16.40;99.90;;;;;;5047497;28;19924;-92
2023/05/13 08:33:44;;;;;;;;;;;16.50;99.90;;;;;;5079091;28;19956;-92
2023/05/13 08:36:10;;;;;;;;;;;16.60;99.90;;;;;;5086618;28;19928;-92
2023/05/13 08:38:36;;;;;;;;;;;16.70;99.90;;;;;;5069989;28;19929;-92
2023/05/13 08:41:07;;;;;;;;;;;16.80;99.90;;;;;;5062558;28;19935;-92
2023/05/13 08:43:39;;;;;;;;;;;16.90;99.90;;;;;;5077732;28;20363;-93
2023/05/13 08:46:07;;;;;;;;;;;16.90;99.90;;;;;;5071203;28;19924;-94
2023/05/13 08:48:33;;;;;;;;;;;17.00;99.90;;;;;;5071665;28;19947;-92
2023/05/13 08:51:01;;;;;;;;;;;17.10;99.90;;;;;;5054361;28;20342;-92
2023/05/13 08:53:27;;;;;;;;;;;17.20;99.90;;;;;;5083763;28;19928;-92
2023/05/13 08:55:53;;;;;;;;;;;17.20;99.90;;;;;;5066698;28;19962;-92
2023/05/13 08:58:19;;;;;;;;;;;17.30;99.90;;;;;;5051767;28;20003;-91
2023/05/13 09:00:44;;;;;;;;;;;17.30;99.90;;;;;;5050391;28;20006;-93
2023/05/13 09:03:11;;;;;;;;;;;17.40;99.90;;;;;;5056161;28;19931;-93
2023/05/13 09:05:36;;;;;;;;;;;17.60;99.90;;;;;;5062879;28;19959;-93
2023/05/13 09:08:05;;;;;;;;;;;17.70;99.90;;;;;;5062993;28;19954;-92
2023/05/13 09:10:31;;;;;;;;;;;17.80;99.90;;;;;;5056960;28;20015;-92
2023/05/13 09:12:57;;;;;;;;;;;17.90;99.90;;;;;;5036269;28;19932;-94
2023/05/13 09:15:24;;;;;;;;;;;17.90;99.90;;;;;;5054443;28;19924;-92
2023/05/13 09:17:51;;;;;;;;;;;18.00;99.90;;;;;;5056846;28;19924;-94
2023/05/13 09:20:18;;;;;;;;;;;18.10;99.90;;;;;;5062795;28;19928;-93
2023/05/13 09:22:56;;;;;;;;;;;18.10;99.90;;;;;;5075182;28;19931;-92
2023/05/13 09:25:24;;;;;;;;;;;18.20;99.90;;;;;;5054236;28;19967;-93
2023/05/13 09:27:51;;;;;;;;;;;18.20;99.90;;;;;;5069415;28;19934;-93
2023/05/13 09:30:18;;;;;;;;;;;18.40;99.90;;;;;;5057236;28;19956;-93
2023/05/13 09:33:11;;;;;;;;;;;18.40;99.90;;;;;;5074769;28;19942;-92
2023/05/13 09:35:37;;;;;;;;;;;18.50;99.90;;;;;;5073856;28;19928;-93
2023/05/13 09:38:13;;;;;;;;;;;18.50;99.90;;;;;;5063253;28;19924;-94
2023/05/13 09:40:48;;;;;;;;;;;18.60;99.90;;;;;;5079445;28;19924;-93
2023/05/13 09:43:15;;;;;;;;;;;18.60;99.90;;;;;;5071784;28;20321;-94
2023/05/13 09:45:42;;;;;;;;;;;18.70;99.90;;;;;;5045504;28;19934;-94
2023/05/13 09:48:08;;;;;;;;;;;18.80;99.90;;;;;;5062952;28;19924;-94
2023/05/13 09:50:33;;;;;;;;;;;18.90;99.90;;;;;;5045903;28;20169;-92
2023/05/13 09:53:10;;;;;;;;;;;18.90;99.90;;;;;;5079223;28;19931;-93
2023/05/13 09:55:35;;;;;;;;;;;19.00;99.90;;;;;;5046335;28;19935;-92
2023/05/13 09:58:09;;;;;;;;;;;19.10;99.90;;;;;;5061452;28;19924;-93
2023/05/13 10:00:35;;;;;;;;;;;19.20;99.90;;;;;;5063895;28;19924;-92
2023/05/13 10:03:01;;;;;;;;;;;19.20;99.90;;;;;;5036664;28;20049;-93
2023/05/13 10:05:26;;;;;;;;;;;19.30;99.90;;;;;;5060000;28;19935;-93
2023/05/13 10:07:52;;;;;;;;;;;19.30;99.90;;;;;;5036913;28;19924;-94
2023/05/13 10:10:18;;;;;;;;;;;19.40;99.90;;;;;;5061747;28;19956;-93
2023/05/13 10:12:44;;;;;;;;;;;19.50;99.90;;;;;;5079292;28;19924;-93
2023/05/13 10:15:10;;;;;;;;;;;19.50;99.90;;;;;;5061337;28;19979;-93
2023/05/13 10:17:36;;;;;;;;;;;19.60;99.90;;;;;;5058980;28;19929;-93
2023/05/13 10:20:03;;;;;;;;;;;19.70;99.90;;;;;;5061430;28;19963;-94
2023/05/13 10:22:30;;;;;;;;;;;19.80;99.90;;;;;;5062902;28;19924;-92
2023/05/13 10:24:57;;;;;;;;;;;19.80;99.90;;;;;;5062318;28;19924;-93
2023/05/13 10:27:25;;;;;;;;;;;19.80;99.90;;;;;;5053375;28;19931;-92
2023/05/13 10:29:53;;;;;;;;;;;20.00;99.90;;;;;;5062479;28;20060;-94
2023/05/13 10:32:18;;;;;;;;;;;19.90;99.90;;;;;;5066998;28;19924;-94
2023/05/13 10:34:45;;;;;;;;;;;19.90;99.90;;;;;;5062726;28;19995;-94
2023/05/13 10:37:30;;;;;;;;;;;19.90;99.90;;;;;;5061247;28;19970;-94
2023/05/13 10:40:05;;;;;;;;;;;20.10;99.90;;;;;;5067875;28;19929;-94
2023/05/13 10:42:43;;;;;;;;;;;20.10;99.90;;;;;;5078770;28;19939;-91
2023/05/13 10:45:15;;;;;;;;;;;20.20;99.90;;;;;;5056598;28;19924;-92
2023/05/13 10:47:41;;;;;;;;;;;20.30;99.90;;;;;;5068182;28;19924;-92
2023/05/13 10:50:23;;;;;;;;;;;20.30;99.90;;;;;;5073831;28;19925;-93
2023/05/13 10:52:55;;;;;;;;;;;20.40;99.90;;;;;;5071787;28;19925;-95
2023/05/13 10:55:21;;;;;;;;;;;20.50;99.90;;;;;;5060804;28;19925;-92
2023/05/13 10:58:03;;;;;;;;;;;20.60;99.90;;;;;;5057043;28;19982;-94
2023/05/13 11:00:30;;;;;;;;;;;20.50;99.90;;;;;;5063059;28;19932;-92
2023/05/13 11:02:56;;;;;;;;;;;20.60;99.70;;;;;;5041158;28;20396;-93
2023/05/13 11:05:27;;;;;;;;;;;20.60;99.90;;;;;;5058778;28;20021;-93
2023/05/13 11:07:53;;;;;;;;;;;20.80;99.90;;;;;;5058736;28;19955;-93
2023/05/13 11:10:24;;;;;;;;;;;20.90;99.90;;;;;;5058009;28;19924;-93
2023/05/13 11:13:18;;;;;;;;;;;20.90;99.20;;;;;;5048551;28;19953;-93
2023/05/13 11:15:48;;;;;;;;;;;20.90;99.90;;;;;;5061006;28;19964;-92
2023/05/13 11:18:14;;;;;;;;;;;20.80;99.90;;;;;;5051343;28;19939;-93
2023/05/13 11:20:39;;;;;;;;;;;20.90;99.90;;;;;;5044403;28;19964;-94
2023/05/13 11:23:07;;;;;;;;;;;20.90;99.90;;;;;;5060021;28;19946;-94
2023/05/13 11:25:33;;;;;;;;;;;21.00;99.90;;;;;;5045389;28;19993;-93
2023/05/13 11:27:58;;;;;;;;;;;21.10;99.90;;;;;;5059987;28;19924;-93
2023/05/13 11:30:27;;;;;;;;;;;21.20;99.90;;;;;;5055162;28;20388;-93
2023/05/13 11:32:57;;;;;;;;;;;21.30;99.90;;;;;;5042903;28;19980;-93
2023/05/13 11:35:24;;;;;;;;;;;21.40;99.90;;;;;;5069322;28;19924;-93
2023/05/13 11:37:49;;;;;;;;;;;21.40;99.90;;;;;;5062075;28;19954;-93
2023/05/13 11:40:24;;;;;;;;;;;21.60;99.90;;;;;;5048900;28;19924;-93
2023/05/13 11:42:50;;;;;;;;;;;21.60;98.70;;;;;;5064984;28;19924;-93
2023/05/13 11:45:16;;;;;;;;;;;21.60;99.10;;;;;;5064437;28;20024;-92
2023/05/13 11:47:48;;;;;;;;;;;21.60;97.50;;;;;;5065363;28;19924;-92
2023/05/13 11:50:18;;;;;;;;;;;21.60;98.00;;;;;;5052017;28;19925;-93
2023/05/13 11:52:44;;;;;;;;;;;21.70;95.30;;;;;;5052618;28;19982;-93
2023/05/13 11:55:11;;;;;;;;;;;21.70;96.70;;;;;;5064901;28;19987;-92
2023/05/13 11:57:37;;;;;;;;;;;21.80;95.70;;;;;;5047813;28;21044;-93
2023/05/13 12:00:04;;;;;;;;;;;21.90;95.40;;;;;;5065536;28;19931;-95
2023/05/13 12:02:32;;;;;;;;;;;22.00;94.90;;;;;;5063290;28;20307;-95
2023/05/13 12:05:03;;;;;;;;;;;22.00;96.50;;;;;;5064997;28;19925;-93
2023/05/13 12:07:28;;;;;;;;;;;22.10;97.50;;;;;;5063809;28;20303;-92
2023/05/13 12:09:55;;;;;;;;;;;22.10;94.70;;;;;;5071583;28;19952;-92
2023/05/13 12:12:21;;;;;;;;;;;22.00;96.00;;;;;;5077673;28;19931;-93
2023/05/13 12:14:49;;;;;;;;;;;21.90;96.10;;;;;;5060003;28;19924;-92
2023/05/13 12:17:15;;;;;;;;;;;21.90;96.20;;;;;;5078089;28;19956;-93
2023/05/13 12:20:00;;;;;;;;;;;21.90;96.50;;;;;;5065763;28;19925;-92
2023/05/13 12:22:26;;;;;;;;;;;22.00;96.90;;;;;;5063892;28;20335;-92
2023/05/13 12:24:52;;;;;;;;;;;22.00;98.40;;;;;;5075743;28;19956;-93
2023/05/13 12:27:17;;;;;;;;;;;22.10;97.40;;;;;;5062801;28;20288;-94
2023/05/13 12:29:43;;;;;;;;;;;22.20;94.80;;;;;;5065308;28;20574;-92
2023/05/13 12:32:10;;;;;;;;;;;22.10;94.20;;;;;;5044582;28;19924;-93
2023/05/13 12:34:37;;;;;;;;;;;22.00;92.30;;;;;;5043091;28;19924;-93
2023/05/13 12:37:10;;;;;;;;;;;21.90;94.00;;;;;;5080525;28;19924;-93
2023/05/13 12:39:36;;;;;;;;;;;22.00;91.70;;;;;;5047916;28;20380;-91
2023/05/13 12:42:02;;;;;;;;;;;22.10;92.10;;;;;;5047361;28;19935;-93
2023/05/13 12:44:29;;;;;;;;;;;22.20;90.90;;;;;;5046752;28;19925;-92
2023/05/13 12:47:00;;;;;;;;;;;22.30;91.00;;;;;;5064230;28;19934;-93
2023/05/13 12:49:25;;;;;;;;;;;22.30;94.30;;;;;;5061929;28;19950;-91
2023/05/13 12:51:51;;;;;;;;;;;22.30;95.60;;;;;;5044538;28;19975;-92
2023/05/13 12:54:17;;;;;;;;;;;22.30;93.60;;;;;;5063535;28;19932;-93
2023/05/13 12:56:43;;;;;;;;;;;22.30;92.00;;;;;;5081784;28;19925;-92
2023/05/13 12:59:09;;;;;;;;;;;23.60;91.00;;;;;;5064193;28;19924;-92
2023/05/13 13:01:35;;;;;;;;;;;22.20;92.00;;;;;;5068554;28;19984;-93
2023/05/13 13:04:00;;;;;;;;;;;22.40;91.30;;;;;;5046862;28;19935;-93
2023/05/13 13:06:26;;;;;;;;;;;22.40;90.40;;;;;;5040525;28;19928;-93
2023/05/13 13:08:52;;;;;;;;;;;22.30;86.10;;;;;;5048504;28;19936;-94
2023/05/13 13:11:17;;;;;;;;;;;22.30;85.70;;;;;;5043525;28;19978;-93
2023/05/13 13:13:43;;;;;;;;;;;22.40;87.20;;;;;;5047588;28;19924;-94
2023/05/13 13:16:09;;;;;;;;;;;22.50;83.60;;;;;;5079461;28;20330;-93
2023/05/13 13:18:35;;;;;;;;;;;22.50;87.00;;;;;;5046433;28;19953;-92
2023/05/13 13:21:00;;;;;;;;;;;24.70;90.10;;;;;;5060981;28;19924;-92
2023/05/13 13:23:26;;;;;;;;;;;22.60;87.70;;;;;;5046155;28;19928;-92
2023/05/13 13:25:52;;;;;;;;;;;22.50;89.30;;;;;;5046924;28;19924;-92
2023/05/13 13:28:17;;;;;;;;;;;22.50;90.10;;;;;;5045826;28;20485;-94
2023/05/13 13:30:46;;;;;;;;;;;22.60;89.00;;;;;;5068052;28;19990;-93
2023/05/13 13:33:13;;;;;;;;;;;22.60;86.40;;;;;;5070031;28;19921;-93
2023/05/13 13:35:39;;;;;;;;;;;22.50;83.50;;;;;;5070259;28;19925;-93
2023/05/13 13:38:07;;;;;;;;;;;22.40;83.20;;;;;;5065465;28;19932;-93
2023/05/13 13:40:32;;;;;;;;;;;22.50;80.90;;;;;;5046037;28;19924;-93
2023/05/13 13:42:58;;;;;;;;;;;22.50;80.30;;;;;;5056247;28;20295;-95
2023/05/13 13:45:24;;;;;;;;;;;22.50;82.00;;;;;;5048453;28;19944;-94
2023/05/13 13:47:50;;;;;;;;;;;22.50;84.00;;;;;;5069922;28;19924;-93
2023/05/13 13:50:16;;;;;;;;;;;22.50;85.40;;;;;;5056136;28;19931;-92
2023/05/13 13:52:42;;;;;;;;;;;22.50;88.40;;;;;;5080245;28;20280;-93
2023/05/13 13:55:10;;;;;;;;;;;22.50;88.70;;;;;;5062675;28;19925;-92
2023/05/13 13:57:36;;;;;;;;;;;22.50;88.60;;;;;;5046081;28;19924;-94
2023/05/13 14:00:01;;;;;;;;;;;22.60;86.30;;;;;;5062622;28;20433;-94
2023/05/13 14:02:27;;;;;;;;;;;22.60;85.10;;;;;;5052845;28;19925;-93
2023/05/13 14:04:52;;;;;;;;;;;22.70;80.20;;;;;;5068833;28;19988;-93
2023/05/13 14:07:18;;;;;;;;;;;22.60;80.50;;;;;;5043761;28;20006;-93
2023/05/13 14:09:44;;;;;;;;;;;22.50;82.10;;;;;;5079607;28;20019;-92
2023/05/13 14:12:09;;;;;;;;;;;22.50;80.20;;;;;;5046117;28;19925;-92
2023/05/13 14:14:35;;;;;;;;;;;22.40;82.60;;;;;;5046200;28;19924;-92
2023/05/13 14:17:01;;;;;;;;;;;22.50;82.80;;;;;;5063253;28;19936;-93